sensor_id;sensor_type;location;lat;lon;timestamp;P1;durP1;ratioP1;P2;durP2;ratioP2
4704;SDS011;2366;51.332;6.610;2023-07-31T00:00:23;5.10;;;3.47;;
4704;SDS011;2366;51.332;6.610;2023-07-31T00:02:49;8.13;;;3.40;;
4704;SDS011;2366;51.332;6.610;2023-07-31T00:05:15;8.33;;;4.00;;
4704;SDS011;2366;51.332;6.610;2023-07-31T00:07:40;7.75;;;4.05;;
4704;SDS011;2366;51.332;6.610;2023-07-31T00:10:06;7.03;;;3.40;;
4704;SDS011;2366;51.332;6.610;2023-07-31T00:12:32;4.90;;;3.10;;
4704;SDS011;2366;51.332;6.610;2023-07-31T00:14:57;19.97;;;5.00;;
4704;SDS011;2366;51.332;6.610;2023-07-31T00:17:23;7.63;;;3.63;;
4704;SDS011;2366;51.332;6.610;2023-07-31T00:19:48;4.57;;;2.87;;
4704;SDS011;2366;51.332;6.610;2023-07-31T00:22:15;5.65;;;3.60;;
4704;SDS011;2366;51.332;6.610;2023-07-31T00:24:41;8.37;;;3.23;;
4704;SDS011;2366;51.332;6.610;2023-07-31T00:27:06;6.30;;;3.40;;
4704;SDS011;2366;51.332;6.610;2023-07-31T00:29:32;14.13;;;4.03;;
4704;SDS011;2366;51.332;6.610;2023-07-31T00:31:57;15.00;;;6.03;;
4704;SDS011;2366;51.332;6.610;2023-07-31T00:34:22;4.77;;;3.10;;
4704;SDS011;2366;51.332;6.610;2023-07-31T00:36:48;7.80;;;4.23;;
4704;SDS011;2366;51.332;6.610;2023-07-31T00:39:13;12.97;;;4.87;;
4704;SDS011;2366;51.332;6.610;2023-07-31T00:41:38;7.87;;;4.37;;
4704;SDS011;2366;51.332;6.610;2023-07-31T00:44:04;7.93;;;4.83;;
4704;SDS011;2366;51.332;6.610;2023-07-31T00:46:29;9.30;;;4.53;;
4704;SDS011;2366;51.332;6.610;2023-07-31T00:48:55;5.67;;;4.57;;
4704;SDS011;2366;51.332;6.610;2023-07-31T00:51:21;7.75;;;3.35;;
4704;SDS011;2366;51.332;6.610;2023-07-31T00:53:46;14.87;;;4.40;;
4704;SDS011;2366;51.332;6.610;2023-07-31T00:56:12;12.20;;;4.23;;
4704;SDS011;2366;51.332;6.610;2023-07-31T00:58:38;6.13;;;3.47;;
4704;SDS011;2366;51.332;6.610;2023-07-31T01:01:03;7.00;;;4.47;;
4704;SDS011;2366;51.332;6.610;2023-07-31T01:03:29;11.00;;;4.60;;
4704;SDS011;2366;51.332;6.610;2023-07-31T01:11:18;9.02;;;4.93;;
4704;SDS011;2366;51.332;6.610;2023-07-31T01:13:46;4.28;;;3.28;;
4704;SDS011;2366;51.332;6.610;2023-07-31T01:16:12;4.33;;;3.40;;
4704;SDS011;2366;51.332;6.610;2023-07-31T01:18:38;9.30;;;4.57;;
4704;SDS011;2366;51.332;6.610;2023-07-31T01:21:06;4.80;;;4.20;;
4704;SDS011;2366;51.332;6.610;2023-07-31T01:26:33;7.35;;;3.90;;
4704;SDS011;2366;51.332;6.610;2023-07-31T01:29:01;9.15;;;4.43;;
4704;SDS011;2366;51.332;6.610;2023-07-31T01:31:32;6.05;;;3.40;;
4704;SDS011;2366;51.332;6.610;2023-07-31T01:33:59;9.83;;;3.73;;
4704;SDS011;2366;51.332;6.610;2023-07-31T01:36:26;5.50;;;3.15;;
4704;SDS011;2366;51.332;6.610;2023-07-31T01:38:52;9.07;;;3.42;;
4704;SDS011;2366;51.332;6.610;2023-07-31T01:41:17;9.13;;;3.30;;
4704;SDS011;2366;51.332;6.610;2023-07-31T01:43:43;10.60;;;3.53;;
4704;SDS011;2366;51.332;6.610;2023-07-31T01:46:10;13.55;;;3.90;;
4704;SDS011;2366;51.332;6.610;2023-07-31T01:48:35;12.87;;;4.10;;
4704;SDS011;2366;51.332;6.610;2023-07-31T01:51:02;10.40;;;3.90;;
4704;SDS011;2366;51.332;6.610;2023-07-31T01:53:28;12.52;;;3.47;;
4704;SDS011;2366;51.332;6.610;2023-07-31T01:55:53;8.20;;;3.20;;
4704;SDS011;2366;51.332;6.610;2023-07-31T01:58:19;11.17;;;3.07;;
4704;SDS011;2366;51.332;6.610;2023-07-31T02:00:44;5.20;;;3.03;;
4704;SDS011;2366;51.332;6.610;2023-07-31T02:03:09;9.80;;;3.67;;
4704;SDS011;2366;51.332;6.610;2023-07-31T02:05:35;6.33;;;3.87;;
4704;SDS011;2366;51.332;6.610;2023-07-31T02:08:00;10.00;;;4.27;;
4704;SDS011;2366;51.332;6.610;2023-07-31T02:10:25;14.37;;;4.07;;
4704;SDS011;2366;51.332;6.610;2023-07-31T02:12:51;7.43;;;3.30;;
4704;SDS011;2366;51.332;6.610;2023-07-31T02:15:16;6.93;;;4.33;;
4704;SDS011;2366;51.332;6.610;2023-07-31T02:17:42;10.17;;;4.37;;
4704;SDS011;2366;51.332;6.610;2023-07-31T02:20:07;11.03;;;3.87;;
4704;SDS011;2366;51.332;6.610;2023-07-31T02:22:33;6.90;;;2.92;;
4704;SDS011;2366;51.332;6.610;2023-07-31T02:24:58;4.17;;;3.03;;
4704;SDS011;2366;51.332;6.610;2023-07-31T02:27:24;4.60;;;3.03;;
4704;SDS011;2366;51.332;6.610;2023-07-31T02:29:52;8.98;;;3.60;;
4704;SDS011;2366;51.332;6.610;2023-07-31T02:32:17;6.80;;;3.40;;
4704;SDS011;2366;51.332;6.610;2023-07-31T02:34:43;7.27;;;3.80;;
4704;SDS011;2366;51.332;6.610;2023-07-31T02:37:08;10.37;;;3.87;;
4704;SDS011;2366;51.332;6.610;2023-07-31T02:39:33;17.57;;;4.63;;
4704;SDS011;2366;51.332;6.610;2023-07-31T02:41:59;7.90;;;4.03;;
4704;SDS011;2366;51.332;6.610;2023-07-31T02:44:25;9.10;;;3.70;;
4704;SDS011;2366;51.332;6.610;2023-07-31T02:46:51;7.73;;;3.57;;
4704;SDS011;2366;51.332;6.610;2023-07-31T02:49:16;6.00;;;3.60;;
4704;SDS011;2366;51.332;6.610;2023-07-31T02:51:41;7.53;;;3.50;;
4704;SDS011;2366;51.332;6.610;2023-07-31T02:54:07;7.70;;;3.37;;
4704;SDS011;2366;51.332;6.610;2023-07-31T02:56:32;13.80;;;4.63;;
4704;SDS011;2366;51.332;6.610;2023-07-31T02:58:57;16.07;;;4.13;;
4704;SDS011;2366;51.332;6.610;2023-07-31T03:01:23;12.13;;;3.20;;
4704;SDS011;2366;51.332;6.610;2023-07-31T03:03:48;7.63;;;3.47;;
4704;SDS011;2366;51.332;6.610;2023-07-31T03:06:14;7.10;;;4.23;;
4704;SDS011;2366;51.332;6.610;2023-07-31T03:08:39;13.43;;;3.77;;
4704;SDS011;2366;51.332;6.610;2023-07-31T03:11:04;11.10;;;4.20;;
4704;SDS011;2366;51.332;6.610;2023-07-31T03:13:30;11.37;;;3.30;;
4704;SDS011;2366;51.332;6.610;2023-07-31T03:15:55;10.43;;;3.93;;
4704;SDS011;2366;51.332;6.610;2023-07-31T03:18:20;6.20;;;3.37;;
4704;SDS011;2366;51.332;6.610;2023-07-31T03:20:46;16.80;;;3.33;;
4704;SDS011;2366;51.332;6.610;2023-07-31T03:23:11;5.73;;;3.00;;
4704;SDS011;2366;51.332;6.610;2023-07-31T03:25:37;12.30;;;4.70;;
4704;SDS011;2366;51.332;6.610;2023-07-31T03:28:02;9.80;;;4.30;;
4704;SDS011;2366;51.332;6.610;2023-07-31T03:30:28;6.37;;;3.60;;
4704;SDS011;2366;51.332;6.610;2023-07-31T03:32:53;10.47;;;3.63;;
4704;SDS011;2366;51.332;6.610;2023-07-31T03:35:18;7.50;;;3.17;;
4704;SDS011;2366;51.332;6.610;2023-07-31T03:37:44;10.97;;;4.23;;
4704;SDS011;2366;51.332;6.610;2023-07-31T03:40:09;10.00;;;3.47;;
4704;SDS011;2366;51.332;6.610;2023-07-31T03:42:35;4.83;;;4.30;;
4704;SDS011;2366;51.332;6.610;2023-07-31T03:45:00;8.97;;;3.70;;
4704;SDS011;2366;51.332;6.610;2023-07-31T03:47:26;6.87;;;4.00;;
4704;SDS011;2366;51.332;6.610;2023-07-31T03:49:51;9.07;;;3.90;;
4704;SDS011;2366;51.332;6.610;2023-07-31T03:52:16;15.63;;;3.67;;
4704;SDS011;2366;51.332;6.610;2023-07-31T03:54:42;7.03;;;3.90;;
4704;SDS011;2366;51.332;6.610;2023-07-31T03:57:09;9.93;;;3.53;;
4704;SDS011;2366;51.332;6.610;2023-07-31T03:59:35;6.43;;;4.13;;
4704;SDS011;2366;51.332;6.610;2023-07-31T04:02:00;5.00;;;3.20;;
4704;SDS011;2366;51.332;6.610;2023-07-31T04:04:26;5.57;;;2.97;;
4704;SDS011;2366;51.332;6.610;2023-07-31T04:06:51;16.93;;;3.83;;
4704;SDS011;2366;51.332;6.610;2023-07-31T04:09:17;11.57;;;4.53;;
4704;SDS011;2366;51.332;6.610;2023-07-31T04:11:42;6.10;;;3.30;;
4704;SDS011;2366;51.332;6.610;2023-07-31T04:14:07;11.20;;;3.53;;
4704;SDS011;2366;51.332;6.610;2023-07-31T04:16:33;9.10;;;4.37;;
4704;SDS011;2366;51.332;6.610;2023-07-31T04:18:58;7.77;;;3.93;;
4704;SDS011;2366;51.332;6.610;2023-07-31T04:21:23;9.13;;;4.57;;
4704;SDS011;2366;51.332;6.610;2023-07-31T04:23:49;10.80;;;4.20;;
4704;SDS011;2366;51.332;6.610;2023-07-31T04:26:14;6.63;;;4.43;;
4704;SDS011;2366;51.332;6.610;2023-07-31T04:28:39;9.77;;;3.37;;
4704;SDS011;2366;51.332;6.610;2023-07-31T04:31:05;8.60;;;3.63;;
4704;SDS011;2366;51.332;6.610;2023-07-31T04:33:30;13.17;;;4.17;;
4704;SDS011;2366;51.332;6.610;2023-07-31T04:35:56;9.33;;;3.70;;
4704;SDS011;2366;51.332;6.610;2023-07-31T04:38:21;5.50;;;3.40;;
4704;SDS011;2366;51.332;6.610;2023-07-31T04:40:47;7.33;;;3.87;;
4704;SDS011;2366;51.332;6.610;2023-07-31T04:43:13;5.83;;;3.50;;
4704;SDS011;2366;51.332;6.610;2023-07-31T04:45:38;6.07;;;3.80;;
4704;SDS011;2366;51.332;6.610;2023-07-31T04:48:03;15.83;;;3.90;;
4704;SDS011;2366;51.332;6.610;2023-07-31T04:50:29;7.67;;;3.00;;
4704;SDS011;2366;51.332;6.610;2023-07-31T04:52:55;7.47;;;3.45;;
4704;SDS011;2366;51.332;6.610;2023-07-31T04:55:21;8.17;;;5.30;;
4704;SDS011;2366;51.332;6.610;2023-07-31T04:57:46;8.23;;;4.20;;
4704;SDS011;2366;51.332;6.610;2023-07-31T05:00:11;11.53;;;5.03;;
4704;SDS011;2366;51.332;6.610;2023-07-31T05:02:37;10.90;;;4.40;;
4704;SDS011;2366;51.332;6.610;2023-07-31T05:05:02;10.40;;;4.40;;
4704;SDS011;2366;51.332;6.610;2023-07-31T05:07:28;7.63;;;3.60;;
4704;SDS011;2366;51.332;6.610;2023-07-31T05:09:53;4.10;;;2.90;;
4704;SDS011;2366;51.332;6.610;2023-07-31T05:12:19;11.43;;;4.53;;
4704;SDS011;2366;51.332;6.610;2023-07-31T05:14:44;6.90;;;4.57;;
4704;SDS011;2366;51.332;6.610;2023-07-31T05:17:09;4.43;;;3.60;;
4704;SDS011;2366;51.332;6.610;2023-07-31T05:19:34;12.33;;;4.60;;
4704;SDS011;2366;51.332;6.610;2023-07-31T05:22:00;7.03;;;4.00;;
4704;SDS011;2366;51.332;6.610;2023-07-31T05:24:25;6.63;;;4.10;;
4704;SDS011;2366;51.332;6.610;2023-07-31T05:26:51;8.00;;;3.83;;
4704;SDS011;2366;51.332;6.610;2023-07-31T05:29:16;6.73;;;4.80;;
4704;SDS011;2366;51.332;6.610;2023-07-31T05:31:41;5.20;;;3.60;;
4704;SDS011;2366;51.332;6.610;2023-07-31T05:34:07;8.73;;;4.23;;
4704;SDS011;2366;51.332;6.610;2023-07-31T05:36:32;10.33;;;4.10;;
4704;SDS011;2366;51.332;6.610;2023-07-31T05:38:57;4.40;;;3.50;;
4704;SDS011;2366;51.332;6.610;2023-07-31T05:41:23;3.63;;;3.20;;
4704;SDS011;2366;51.332;6.610;2023-07-31T05:43:48;10.77;;;3.40;;
4704;SDS011;2366;51.332;6.610;2023-07-31T05:46:15;4.57;;;3.83;;
4704;SDS011;2366;51.332;6.610;2023-07-31T05:48:40;8.40;;;3.77;;
4704;SDS011;2366;51.332;6.610;2023-07-31T05:51:06;4.30;;;3.60;;
4704;SDS011;2366;51.332;6.610;2023-07-31T05:53:32;9.70;;;3.67;;
4704;SDS011;2366;51.332;6.610;2023-07-31T05:56:01;12.18;;;4.70;;
4704;SDS011;2366;51.332;6.610;2023-07-31T05:58:26;7.70;;;4.77;;
4704;SDS011;2366;51.332;6.610;2023-07-31T06:00:51;8.40;;;4.07;;
4704;SDS011;2366;51.332;6.610;2023-07-31T06:03:17;7.53;;;3.10;;
4704;SDS011;2366;51.332;6.610;2023-07-31T06:05:42;12.73;;;3.10;;
4704;SDS011;2366;51.332;6.610;2023-07-31T06:08:08;6.80;;;3.80;;
4704;SDS011;2366;51.332;6.610;2023-07-31T06:10:33;7.80;;;4.40;;
4704;SDS011;2366;51.332;6.610;2023-07-31T06:12:59;7.43;;;4.30;;
4704;SDS011;2366;51.332;6.610;2023-07-31T06:15:25;14.73;;;4.60;;
4704;SDS011;2366;51.332;6.610;2023-07-31T06:17:50;7.10;;;4.57;;
4704;SDS011;2366;51.332;6.610;2023-07-31T06:20:15;12.13;;;4.53;;
4704;SDS011;2366;51.332;6.610;2023-07-31T06:22:41;12.80;;;4.27;;
4704;SDS011;2366;51.332;6.610;2023-07-31T06:25:06;8.90;;;4.07;;
4704;SDS011;2366;51.332;6.610;2023-07-31T06:27:32;8.50;;;4.60;;
4704;SDS011;2366;51.332;6.610;2023-07-31T06:29:57;4.63;;;3.57;;
4704;SDS011;2366;51.332;6.610;2023-07-31T06:32:23;4.37;;;3.90;;
4704;SDS011;2366;51.332;6.610;2023-07-31T06:34:48;4.53;;;3.83;;
4704;SDS011;2366;51.332;6.610;2023-07-31T06:37:13;6.20;;;3.70;;
4704;SDS011;2366;51.332;6.610;2023-07-31T06:39:39;7.70;;;4.13;;
4704;SDS011;2366;51.332;6.610;2023-07-31T06:42:04;3.93;;;3.53;;
4704;SDS011;2366;51.332;6.610;2023-07-31T06:44:30;6.10;;;4.73;;
4704;SDS011;2366;51.332;6.610;2023-07-31T06:46:55;4.93;;;4.00;;
4704;SDS011;2366;51.332;6.610;2023-07-31T06:49:21;7.63;;;3.47;;
4704;SDS011;2366;51.332;6.610;2023-07-31T06:51:46;10.57;;;3.80;;
4704;SDS011;2366;51.332;6.610;2023-07-31T06:54:11;4.80;;;3.73;;
4704;SDS011;2366;51.332;6.610;2023-07-31T06:56:37;10.63;;;4.00;;
4704;SDS011;2366;51.332;6.610;2023-07-31T06:59:03;5.17;;;3.53;;
4704;SDS011;2366;51.332;6.610;2023-07-31T07:01:28;8.73;;;3.83;;
4704;SDS011;2366;51.332;6.610;2023-07-31T07:03:54;5.90;;;3.77;;
4704;SDS011;2366;51.332;6.610;2023-07-31T07:06:19;7.00;;;4.87;;
4704;SDS011;2366;51.332;6.610;2023-07-31T07:08:45;6.50;;;2.77;;
4704;SDS011;2366;51.332;6.610;2023-07-31T07:11:10;4.90;;;3.20;;
4704;SDS011;2366;51.332;6.610;2023-07-31T07:13:36;4.80;;;3.40;;
4704;SDS011;2366;51.332;6.610;2023-07-31T07:16:01;10.80;;;4.20;;
4704;SDS011;2366;51.332;6.610;2023-07-31T07:18:27;5.73;;;3.67;;
4704;SDS011;2366;51.332;6.610;2023-07-31T07:20:53;14.97;;;3.90;;
4704;SDS011;2366;51.332;6.610;2023-07-31T07:23:19;6.40;;;4.10;;
4704;SDS011;2366;51.332;6.610;2023-07-31T07:25:46;4.05;;;3.08;;
4704;SDS011;2366;51.332;6.610;2023-07-31T07:28:12;7.68;;;4.15;;
4704;SDS011;2366;51.332;6.610;2023-07-31T07:30:38;9.83;;;2.80;;
4704;SDS011;2366;51.332;6.610;2023-07-31T07:33:03;6.60;;;3.47;;
4704;SDS011;2366;51.332;6.610;2023-07-31T07:35:28;5.90;;;3.53;;
4704;SDS011;2366;51.332;6.610;2023-07-31T07:37:54;4.63;;;3.70;;
4704;SDS011;2366;51.332;6.610;2023-07-31T07:40:20;6.90;;;4.73;;
4704;SDS011;2366;51.332;6.610;2023-07-31T07:42:46;4.82;;;2.38;;
4704;SDS011;2366;51.332;6.610;2023-07-31T07:45:11;8.97;;;4.07;;
4704;SDS011;2366;51.332;6.610;2023-07-31T07:47:38;6.15;;;3.20;;
4704;SDS011;2366;51.332;6.610;2023-07-31T07:50:06;3.50;;;3.05;;
4704;SDS011;2366;51.332;6.610;2023-07-31T07:52:32;3.78;;;3.13;;
4704;SDS011;2366;51.332;6.610;2023-07-31T07:54:57;11.67;;;3.80;;
4704;SDS011;2366;51.332;6.610;2023-07-31T07:57:22;10.23;;;4.53;;
4704;SDS011;2366;51.332;6.610;2023-07-31T07:59:48;2.70;;;2.20;;
4704;SDS011;2366;51.332;6.610;2023-07-31T08:02:13;4.10;;;2.20;;
4704;SDS011;2366;51.332;6.610;2023-07-31T08:04:39;3.30;;;2.63;;
4704;SDS011;2366;51.332;6.610;2023-07-31T08:07:04;3.70;;;3.03;;
4704;SDS011;2366;51.332;6.610;2023-07-31T08:09:29;3.43;;;2.70;;
4704;SDS011;2366;51.332;6.610;2023-07-31T08:11:55;10.43;;;2.90;;
4704;SDS011;2366;51.332;6.610;2023-07-31T08:14:22;3.97;;;2.45;;
4704;SDS011;2366;51.332;6.610;2023-07-31T08:16:49;3.77;;;2.53;;
4704;SDS011;2366;51.332;6.610;2023-07-31T08:19:14;3.15;;;2.85;;
4704;SDS011;2366;51.332;6.610;2023-07-31T08:21:40;3.73;;;2.80;;
4704;SDS011;2366;51.332;6.610;2023-07-31T08:24:05;3.93;;;2.50;;
4704;SDS011;2366;51.332;6.610;2023-07-31T08:26:31;13.53;;;3.20;;
4704;SDS011;2366;51.332;6.610;2023-07-31T08:28:56;13.00;;;3.17;;
4704;SDS011;2366;51.332;6.610;2023-07-31T08:31:22;4.32;;;2.75;;
4704;SDS011;2366;51.332;6.610;2023-07-31T08:33:47;2.90;;;2.50;;
4704;SDS011;2366;51.332;6.610;2023-07-31T08:36:13;4.67;;;2.67;;
4704;SDS011;2366;51.332;6.610;2023-07-31T08:38:38;5.53;;;2.60;;
4704;SDS011;2366;51.332;6.610;2023-07-31T08:41:04;3.63;;;2.07;;
4704;SDS011;2366;51.332;6.610;2023-07-31T08:43:30;5.17;;;2.60;;
4704;SDS011;2366;51.332;6.610;2023-07-31T08:45:55;3.33;;;3.00;;
4704;SDS011;2366;51.332;6.610;2023-07-31T08:48:22;2.57;;;2.13;;
4704;SDS011;2366;51.332;6.610;2023-07-31T08:50:49;8.38;;;3.17;;
4704;SDS011;2366;51.332;6.610;2023-07-31T08:53:15;5.10;;;3.17;;
4704;SDS011;2366;51.332;6.610;2023-07-31T08:55:41;4.07;;;2.28;;
4704;SDS011;2366;51.332;6.610;2023-07-31T08:58:07;2.25;;;2.05;;
4704;SDS011;2366;51.332;6.610;2023-07-31T09:00:33;3.50;;;2.80;;
4704;SDS011;2366;51.332;6.610;2023-07-31T09:02:59;4.83;;;2.80;;
4704;SDS011;2366;51.332;6.610;2023-07-31T09:05:33;1.92;;;1.83;;
4704;SDS011;2366;51.332;6.610;2023-07-31T09:08:02;2.80;;;2.42;;
4704;SDS011;2366;51.332;6.610;2023-07-31T09:10:29;4.85;;;3.08;;
4704;SDS011;2366;51.332;6.610;2023-07-31T09:12:54;5.33;;;2.70;;
4704;SDS011;2366;51.332;6.610;2023-07-31T09:15:21;3.53;;;3.22;;
4704;SDS011;2366;51.332;6.610;2023-07-31T09:17:48;6.43;;;3.10;;
4704;SDS011;2366;51.332;6.610;2023-07-31T09:20:24;5.82;;;2.80;;
4704;SDS011;2366;51.332;6.610;2023-07-31T09:22:49;5.57;;;3.50;;
4704;SDS011;2366;51.332;6.610;2023-07-31T09:27:48;5.78;;;2.80;;
4704;SDS011;2366;51.332;6.610;2023-07-31T09:30:14;2.15;;;1.95;;
4704;SDS011;2366;51.332;6.610;2023-07-31T09:32:43;6.50;;;2.60;;
4704;SDS011;2366;51.332;6.610;2023-07-31T09:35:33;2.67;;;2.38;;
4704;SDS011;2366;51.332;6.610;2023-07-31T09:38:09;2.70;;;2.50;;
4704;SDS011;2366;51.332;6.610;2023-07-31T09:40:37;8.68;;;2.75;;
4704;SDS011;2366;51.332;6.610;2023-07-31T09:43:05;4.18;;;2.33;;
4704;SDS011;2366;51.332;6.610;2023-07-31T09:45:35;6.63;;;2.72;;
4704;SDS011;2366;51.332;6.610;2023-07-31T09:48:12;5.93;;;2.53;;
4704;SDS011;2366;51.332;6.610;2023-07-31T09:50:41;3.13;;;2.90;;
4704;SDS011;2366;51.332;6.610;2023-07-31T09:53:08;5.22;;;3.28;;
4704;SDS011;2366;51.332;6.610;2023-07-31T09:55:34;2.78;;;2.53;;
4704;SDS011;2366;51.332;6.610;2023-07-31T09:58:05;3.97;;;2.75;;
4704;SDS011;2366;51.332;6.610;2023-07-31T10:00:32;2.95;;;2.50;;
4704;SDS011;2366;51.332;6.610;2023-07-31T10:02:59;3.73;;;2.53;;
4704;SDS011;2366;51.332;6.610;2023-07-31T10:05:28;2.83;;;2.58;;
4704;SDS011;2366;51.332;6.610;2023-07-31T10:08:03;3.13;;;2.83;;
4704;SDS011;2366;51.332;6.610;2023-07-31T10:10:29;2.70;;;2.50;;
4704;SDS011;2366;51.332;6.610;2023-07-31T10:12:55;4.13;;;2.47;;
4704;SDS011;2366;51.332;6.610;2023-07-31T10:15:22;4.40;;;3.55;;
4704;SDS011;2366;51.332;6.610;2023-07-31T10:17:48;8.88;;;2.40;;
4704;SDS011;2366;51.332;6.610;2023-07-31T10:20:15;2.67;;;2.45;;
4704;SDS011;2366;51.332;6.610;2023-07-31T10:22:42;3.35;;;2.40;;
4704;SDS011;2366;51.332;6.610;2023-07-31T10:25:08;4.75;;;3.15;;
4704;SDS011;2366;51.332;6.610;2023-07-31T10:27:41;5.32;;;2.90;;
4704;SDS011;2366;51.332;6.610;2023-07-31T10:30:11;6.13;;;2.55;;
4704;SDS011;2366;51.332;6.610;2023-07-31T10:32:40;8.85;;;3.30;;
4704;SDS011;2366;51.332;6.610;2023-07-31T10:35:07;7.90;;;2.50;;
4704;SDS011;2366;51.332;6.610;2023-07-31T10:37:38;2.80;;;2.60;;
4704;SDS011;2366;51.332;6.610;2023-07-31T10:42:32;6.30;;;2.60;;
4704;SDS011;2366;51.332;6.610;2023-07-31T10:45:08;2.53;;;2.23;;
4704;SDS011;2366;51.332;6.610;2023-07-31T10:50:12;3.43;;;2.30;;
4704;SDS011;2366;51.332;6.610;2023-07-31T10:52:38;4.37;;;3.80;;
4704;SDS011;2366;51.332;6.610;2023-07-31T10:57:49;10.33;;;2.53;;
4704;SDS011;2366;51.332;6.610;2023-07-31T11:02:55;2.63;;;2.43;;
4704;SDS011;2366;51.332;6.610;2023-07-31T11:05:22;4.93;;;2.13;;
4704;SDS011;2366;51.332;6.610;2023-07-31T11:08:12;1.90;;;1.73;;
4704;SDS011;2366;51.332;6.610;2023-07-31T11:10:47;2.40;;;1.90;;
4704;SDS011;2366;51.332;6.610;2023-07-31T11:13:13;3.23;;;1.70;;
4704;SDS011;2366;51.332;6.610;2023-07-31T11:15:39;3.50;;;1.90;;
4704;SDS011;2366;51.332;6.610;2023-07-31T11:18:04;3.30;;;2.60;;
4704;SDS011;2366;51.332;6.610;2023-07-31T11:20:31;2.70;;;2.40;;
4704;SDS011;2366;51.332;6.610;2023-07-31T11:22:58;2.97;;;2.53;;
4704;SDS011;2366;51.332;6.610;2023-07-31T11:25:25;2.83;;;1.97;;
4704;SDS011;2366;51.332;6.610;2023-07-31T11:27:51;5.33;;;2.27;;
4704;SDS011;2366;51.332;6.610;2023-07-31T11:30:19;4.03;;;1.60;;
4704;SDS011;2366;51.332;6.610;2023-07-31T11:32:45;3.00;;;2.23;;
4704;SDS011;2366;51.332;6.610;2023-07-31T11:35:13;5.87;;;2.13;;
4704;SDS011;2366;51.332;6.610;2023-07-31T11:37:39;2.33;;;2.13;;
4704;SDS011;2366;51.332;6.610;2023-07-31T11:40:06;3.23;;;2.20;;
4704;SDS011;2366;51.332;6.610;2023-07-31T11:42:32;5.30;;;2.23;;
4704;SDS011;2366;51.332;6.610;2023-07-31T11:44:58;2.57;;;1.87;;
4704;SDS011;2366;51.332;6.610;2023-07-31T11:47:27;4.47;;;1.97;;
4704;SDS011;2366;51.332;6.610;2023-07-31T11:49:53;2.07;;;1.87;;
4704;SDS011;2366;51.332;6.610;2023-07-31T11:52:18;2.87;;;1.63;;
4704;SDS011;2366;51.332;6.610;2023-07-31T11:54:45;4.13;;;2.10;;
4704;SDS011;2366;51.332;6.610;2023-07-31T11:57:11;3.17;;;2.50;;
4704;SDS011;2366;51.332;6.610;2023-07-31T11:59:38;2.00;;;1.87;;
4704;SDS011;2366;51.332;6.610;2023-07-31T12:02:04;3.00;;;2.40;;
4704;SDS011;2366;51.332;6.610;2023-07-31T12:04:30;1.97;;;1.80;;
4704;SDS011;2366;51.332;6.610;2023-07-31T12:06:56;5.77;;;2.17;;
4704;SDS011;2366;51.332;6.610;2023-07-31T12:09:21;5.03;;;1.97;;
4704;SDS011;2366;51.332;6.610;2023-07-31T12:11:47;3.30;;;2.00;;
4704;SDS011;2366;51.332;6.610;2023-07-31T12:14:23;2.20;;;2.00;;
4704;SDS011;2366;51.332;6.610;2023-07-31T12:16:59;3.33;;;1.50;;
4704;SDS011;2366;51.332;6.610;2023-07-31T12:19:26;2.20;;;1.40;;
4704;SDS011;2366;51.332;6.610;2023-07-31T12:21:54;3.30;;;1.83;;
4704;SDS011;2366;51.332;6.610;2023-07-31T12:24:20;3.10;;;2.10;;
4704;SDS011;2366;51.332;6.610;2023-07-31T12:26:46;2.47;;;2.10;;
4704;SDS011;2366;51.332;6.610;2023-07-31T12:29:13;4.10;;;1.83;;
4704;SDS011;2366;51.332;6.610;2023-07-31T12:31:38;6.40;;;1.87;;
4704;SDS011;2366;51.332;6.610;2023-07-31T12:34:16;1.73;;;1.57;;
4704;SDS011;2366;51.332;6.610;2023-07-31T12:36:43;2.90;;;2.00;;
4704;SDS011;2366;51.332;6.610;2023-07-31T12:39:08;2.20;;;1.60;;
4704;SDS011;2366;51.332;6.610;2023-07-31T12:41:34;2.47;;;1.80;;
4704;SDS011;2366;51.332;6.610;2023-07-31T12:43:59;1.90;;;1.57;;
4704;SDS011;2366;51.332;6.610;2023-07-31T12:46:25;2.30;;;1.63;;
4704;SDS011;2366;51.332;6.610;2023-07-31T12:48:50;1.53;;;1.43;;
4704;SDS011;2366;51.332;6.610;2023-07-31T12:51:15;2.30;;;2.10;;
4704;SDS011;2366;51.332;6.610;2023-07-31T12:53:41;2.87;;;2.47;;
4704;SDS011;2366;51.332;6.610;2023-07-31T12:56:06;2.70;;;1.60;;
4704;SDS011;2366;51.332;6.610;2023-07-31T12:58:31;6.73;;;1.73;;
4704;SDS011;2366;51.332;6.610;2023-07-31T13:00:57;2.13;;;2.03;;
4704;SDS011;2366;51.332;6.610;2023-07-31T13:03:22;2.23;;;1.93;;
4704;SDS011;2366;51.332;6.610;2023-07-31T13:05:48;2.17;;;1.90;;
4704;SDS011;2366;51.332;6.610;2023-07-31T13:08:13;3.70;;;2.33;;
4704;SDS011;2366;51.332;6.610;2023-07-31T13:10:40;3.17;;;2.33;;
4704;SDS011;2366;51.332;6.610;2023-07-31T13:13:06;2.70;;;2.50;;
4704;SDS011;2366;51.332;6.610;2023-07-31T13:15:31;2.10;;;1.90;;
4704;SDS011;2366;51.332;6.610;2023-07-31T13:17:57;2.50;;;2.13;;
4704;SDS011;2366;51.332;6.610;2023-07-31T13:20:22;2.57;;;2.37;;
4704;SDS011;2366;51.332;6.610;2023-07-31T13:22:48;3.87;;;2.40;;
4704;SDS011;2366;51.332;6.610;2023-07-31T13:25:13;3.53;;;2.40;;
4704;SDS011;2366;51.332;6.610;2023-07-31T13:27:39;4.03;;;2.37;;
4704;SDS011;2366;51.332;6.610;2023-07-31T13:30:04;5.47;;;3.73;;
4704;SDS011;2366;51.332;6.610;2023-07-31T13:32:30;6.90;;;3.40;;
4704;SDS011;2366;51.332;6.610;2023-07-31T13:34:56;5.60;;;2.93;;
4704;SDS011;2366;51.332;6.610;2023-07-31T13:37:21;4.20;;;2.70;;
4704;SDS011;2366;51.332;6.610;2023-07-31T13:39:47;2.77;;;2.47;;
4704;SDS011;2366;51.332;6.610;2023-07-31T13:42:12;4.60;;;2.40;;
4704;SDS011;2366;51.332;6.610;2023-07-31T13:44:38;6.23;;;2.87;;
4704;SDS011;2366;51.332;6.610;2023-07-31T13:47:04;7.33;;;2.53;;
4704;SDS011;2366;51.332;6.610;2023-07-31T13:49:29;3.30;;;2.60;;
4704;SDS011;2366;51.332;6.610;2023-07-31T13:51:55;2.87;;;2.33;;
4704;SDS011;2366;51.332;6.610;2023-07-31T13:54:22;3.60;;;3.30;;
4704;SDS011;2366;51.332;6.610;2023-07-31T13:56:48;2.50;;;2.30;;
4704;SDS011;2366;51.332;6.610;2023-07-31T13:59:13;3.40;;;2.97;;
4704;SDS011;2366;51.332;6.610;2023-07-31T14:01:41;3.07;;;2.77;;
4704;SDS011;2366;51.332;6.610;2023-07-31T14:04:06;3.73;;;2.90;;
4704;SDS011;2366;51.332;6.610;2023-07-31T14:06:31;3.37;;;3.00;;
4704;SDS011;2366;51.332;6.610;2023-07-31T14:08:57;3.50;;;2.70;;
4704;SDS011;2366;51.332;6.610;2023-07-31T14:11:22;9.07;;;3.00;;
4704;SDS011;2366;51.332;6.610;2023-07-31T14:13:48;3.77;;;2.70;;
4704;SDS011;2366;51.332;6.610;2023-07-31T14:16:14;3.27;;;2.97;;
4704;SDS011;2366;51.332;6.610;2023-07-31T14:18:40;4.20;;;2.80;;
4704;SDS011;2366;51.332;6.610;2023-07-31T14:21:05;5.43;;;2.73;;
4704;SDS011;2366;51.332;6.610;2023-07-31T14:23:30;3.33;;;2.67;;
4704;SDS011;2366;51.332;6.610;2023-07-31T14:25:56;2.90;;;2.43;;
4704;SDS011;2366;51.332;6.610;2023-07-31T14:28:21;2.63;;;2.40;;
4704;SDS011;2366;51.332;6.610;2023-07-31T14:30:46;6.03;;;3.40;;
4704;SDS011;2366;51.332;6.610;2023-07-31T14:33:12;5.13;;;2.60;;
4704;SDS011;2366;51.332;6.610;2023-07-31T14:35:37;6.50;;;3.03;;
4704;SDS011;2366;51.332;6.610;2023-07-31T14:38:02;5.50;;;3.00;;
4704;SDS011;2366;51.332;6.610;2023-07-31T14:40:28;3.27;;;2.63;;
4704;SDS011;2366;51.332;6.610;2023-07-31T14:42:53;9.13;;;3.20;;
4704;SDS011;2366;51.332;6.610;2023-07-31T14:45:19;4.00;;;2.60;;
4704;SDS011;2366;51.332;6.610;2023-07-31T14:47:44;3.20;;;2.87;;
4704;SDS011;2366;51.332;6.610;2023-07-31T14:50:09;3.33;;;2.80;;
4704;SDS011;2366;51.332;6.610;2023-07-31T14:52:35;4.93;;;2.97;;
4704;SDS011;2366;51.332;6.610;2023-07-31T14:55:01;6.87;;;2.53;;
4704;SDS011;2366;51.332;6.610;2023-07-31T14:57:26;2.77;;;2.53;;
4704;SDS011;2366;51.332;6.610;2023-07-31T14:59:52;2.60;;;2.20;;
4704;SDS011;2366;51.332;6.610;2023-07-31T15:02:17;4.87;;;3.47;;
4704;SDS011;2366;51.332;6.610;2023-07-31T15:04:42;4.00;;;3.47;;
4704;SDS011;2366;51.332;6.610;2023-07-31T15:07:08;4.10;;;2.80;;
4704;SDS011;2366;51.332;6.610;2023-07-31T15:09:33;4.60;;;3.33;;
4704;SDS011;2366;51.332;6.610;2023-07-31T15:11:58;5.50;;;3.37;;
4704;SDS011;2366;51.332;6.610;2023-07-31T15:14:24;4.20;;;3.07;;
4704;SDS011;2366;51.332;6.610;2023-07-31T15:16:51;5.03;;;2.83;;
4704;SDS011;2366;51.332;6.610;2023-07-31T15:19:16;2.77;;;2.33;;
4704;SDS011;2366;51.332;6.610;2023-07-31T15:21:41;4.93;;;3.27;;
4704;SDS011;2366;51.332;6.610;2023-07-31T15:24:07;4.57;;;3.13;;
4704;SDS011;2366;51.332;6.610;2023-07-31T15:26:32;3.43;;;2.80;;